TOP > 外国特許検索

外国特許検索

Display results per page Option
Patent state
Country

Clear

Hits 4690 results

No. Application number
Gazette No
Country
Title
Release Date
Update Date
Information Provider
1501 2011JP067004 WO 2012/017867 世界知的所有権機関(WIPO) METHOD FOR TESTING FOR PSYCHIATRIC DISORDER, TEST KIT FOR PSYCHIATRIC DISORDER, AND METHOD FOR EVALUATING THERAPEUTIC AGENT AND/OR PREVENTION AGENT FOR PSYCHIATRIC DISORDER 新技術説明会 2012/09/20 2012/09/20 広島大学
1502 2011JP078150 WO 2012/077664 世界知的所有権機関(WIPO) PLANT TRANSFORMATION METHOD PERFORMED VIA GRAFTING OF ROOTSTOCK AND SCION 新技術説明会 2012/09/20 2012/09/20 弘前大学
1503 2011JP063881 WO 2011/162172 世界知的所有権機関(WIPO) QUANTUM COMPUTER 2012/09/20 2013/09/17 筑波大学
1504 2010JP071880 WO 2011/155089 世界知的所有権機関(WIPO) ELECTRICAL STIMULATION DEVICE AND ELECTRICAL STIMULATION METHOD 新技術説明会 2012/09/20 2013/09/17 電気通信大学
1505 2011JP062324 WO 2012/008228 世界知的所有権機関(WIPO) METHOD FOR OXIDIZING ALCOHOLS 2012/09/20 2013/09/17 東北大学
1506 2011JP064954 WO 2012/002456 世界知的所有権機関(WIPO) METHOD FOR CONTROLLING HYDROTHERMAL SYNTHESIS REACTION USING ALDEHYDE 2012/09/20 2013/09/17 東北大学
1507 2011JP065712 WO 2012/008383 世界知的所有権機関(WIPO) MAGNETIC PUMP 2012/09/20 2012/09/20 東北大学
1508 2011JP003405 WO 2011/158500 世界知的所有権機関(WIPO) ASYNCHRONOUS MEMORY ELEMENT FOR SCANNING, SEMICONDUCTOR INTEGRATED CIRCUIT PROVIDED WITH SAME, DESIGN METHOD THEREOF, AND TEST PATTERN GENERATION METHOD 2012/09/20 2013/09/17 奈良先端科学技術大学院大学
1509 2012JP056184 WO 2012/121393 世界知的所有権機関(WIPO) ORGANIC SEMICONDUCTOR MATERIAL 2012/09/26 2012/09/26 東京工業大学
1510 2012JP055615 WO 2012/121230 世界知的所有権機関(WIPO) ACOUSTIC WAVE TO SPIN CURRENT CONVERSION ELEMENT 2012/09/26 2012/09/26 東北大学
1511 2012JP055485 WO 2012/121180 世界知的所有権機関(WIPO) METHOD FOR PRODUCING COLLOIDAL CRYSTAL, AND COLLOIDAL CRYSTAL 新技術説明会 2012/09/26 2012/09/26 名古屋市立大学
1512 2012JP054732 WO 2012/118000 世界知的所有権機関(WIPO) WATER HAMMER GENERATION DEVICE 2012/09/26 2012/09/26 日大NUBIC
1513 2012JP056203 WO 2012121395 世界知的所有権機関(WIPO) CHOLESTEROL-DEPENDENT CYTOLYSIN VARIANT AND USE THEREOF IN DDS 2012/09/26 2019/04/23 徳島大学
1514 2012JP055263 WO 2012/121111 世界知的所有権機関(WIPO) COMPOSITE THIN FILM AND COMPOSITE NANOCRYSTALS CONTAINING EUROPIUM(II) COMPOUND AND METAL 2012/09/26 2012/09/26 北海道大学
1515 2012JP055264 WO 2012/121112 世界知的所有権機関(WIPO) THIN FILM AND NANOCRYSTALS OF EUROPIUM(II) COMPOUND DOPED WITH METAL IONS 2012/09/26 2012/09/26 北海道大学
1516 2012JP053613 WO 2012/117860 世界知的所有権機関(WIPO) THIN FILM SOLAR CELL 2012/09/27 2013/09/17 科学技術振興機構(JST)
1517 2011JP069650 WO 2012/117588 世界知的所有権機関(WIPO) MULTIPLE SUBSTANCES-RESPONSIVE GEL, METHOD FOR PRODUCING SAME, AND UTILIZATION OF SAME 2012/09/27 2013/09/17 科学技術振興機構(JST)
1518 2012JP055002 WO 2012121067 世界知的所有権機関(WIPO) METHOD FOR FABRICATING ELECTRODE STRUCTURE HAVING NANOGAP LENGTH, ELECTRODE STRUCTURE HAVING NANOGAP LENGTH OBTAINED THEREBY, AND NANODEVICE 2012/09/27 2016/09/14 科学技術振興機構(JST)
1519 2012JP055884 WO 2012/121310 世界知的所有権機関(WIPO) BEAD SEALING METHOD, METHOD FOR DETECTING TARGET MOLECULE, ARRAY, KIT, AND TARGET MOLECULE DETECTION DEVICE 2012/09/27 2012/09/27 科学技術振興機構(JST)
1520 2005JP020305 WO 2006/049252 世界知的所有権機関(WIPO) METHOD AND DEVICE FOR CONTROLLING INJECTION OF FUEL FOR MARINE DIESEL ENGINE 2012/09/28 2013/09/17 東京海洋大学
1521 2012JP056691 WO 2012124764 世界知的所有権機関(WIPO) ANTIBODY PRODUCTION METHOD 2012/10/03 2019/04/23 三重大学
1522 2012JP055694 WO 2012/124546 世界知的所有権機関(WIPO) GLOVE-TYPE POWER ASSIST DEVICE 2012/10/03 2012/10/03 岡山大学
1523 2012JP055984 WO 2012/124605 世界知的所有権機関(WIPO) HYDROGEN PRODUCTION CATALYST CONTAINING Ni3Si-BASED INTERMETALLIC COMPOUND, METHOD FOR ACTIVATING CATALYST, AND HYDROGEN PRODUCTION METHOD AND DEVICE USING CATALYST 2012/10/03 2012/10/03 大阪府立大学
1524 2007JP056614 WO 2007/119557 世界知的所有権機関(WIPO) METHOD OF DETECTING KOI HERPES VIRUS (KHV) 2012/10/09 2013/09/17 東京海洋大学
1525 2007JP057137 WO 2008/026339 世界知的所有権機関(WIPO) TRAWL NET LAYER-BY-LAYER COLLECTING DEVICE 2012/10/09 2012/10/09 東京海洋大学
1526 2007JP057138 WO 2008/029533 世界知的所有権機関(WIPO) NET MOUTH INCLINATION KEEPING TYPE TRAWL NET FISHERY SYSTEM 2012/10/09 2013/09/17 東京海洋大学
1527 2007JP071201 WO 2008/056580 世界知的所有権機関(WIPO) SUPERCONDUCTIVE ROTATING ELECTRIC MACHINE DRIVE CONTROL SYSTEM AND SUPERCONDUCTIVE ROTATING ELECTRIC MACHINE DRIVE CONTROL METHOD 2012/10/09 2012/10/09 東京海洋大学
1528 2007JP072659 WO 2008/062867 世界知的所有権機関(WIPO) DEVICE FOR DETECTING GRAVITY CENTER, DEVICE FOR PREDICTING CRITICAL SPEED FOR LATERAL OVERTURN, AND DEVICE FOR PREDICTING CARGO WEIGHT 2012/10/09 2013/09/17 東京海洋大学
1529 2008JP000743 WO 2008/129838 世界知的所有権機関(WIPO) GERM CELL MARKER USING FISH VASA GENE 2012/10/09 2012/10/09 東京海洋大学
1530 2008JP068954 WO 2009/057472 世界知的所有権機関(WIPO) METHOD OF ARTIFICIALLY FEEDING SHRIMP LARVAE AND FEEDING APPARATUS 2012/10/09 2013/09/17 東京海洋大学
1531 2009JP052411 WO 2009/102019 世界知的所有権機関(WIPO) ANTIOXIDATIVE COMPOSITION FOR FEED RAW MATERIAL 2012/10/09 2013/09/17 東京海洋大学
1532 2009JP067502 WO 2010/044365 世界知的所有権機関(WIPO) REAGENT KIT FOR MEASURING FRESHNESS 2012/10/10 2013/09/17 東京海洋大学
1533 2010JP051961 WO 2010/092980 世界知的所有権機関(WIPO) HIGH LIFT OTTER BOARD 2012/10/10 2012/10/10 東京海洋大学
1534 2010JP055236 WO 2010/110373 世界知的所有権機関(WIPO) GENE MARKER LINKED TO GENETIC SEX OF YELLOWTAIL, SEX DETERMINATION METHOD FOR YELLOWTAIL, AND PRIMER FOR USE IN SEX DETERMINATION METHOD 2012/10/10 2012/10/10 東京海洋大学
1535 2010JP002120 WO 2010/109874 世界知的所有権機関(WIPO) KOI HERPES VIRUS-SPECIFIC ANTIBODY AND ANTIGEN THEREOF 2012/10/10 2013/09/17 東京海洋大学
1536 2010JP059365 WO 2010/140627 世界知的所有権機関(WIPO) ROTARY JOINT FOR LOW-TEMPERATURE APPLICATION 2012/10/10 2013/09/17 東京海洋大学
1537 2010JP070425 WO 2011/062171 世界知的所有権機関(WIPO) FLOCCULATING AGENT STARTING MATERIAL USING BROWN ALGAE AS STARTING MATERIAL, FLOCCULATING AGENT USING SAID STARTING MATERIAL, PREPARATION METHOD FOR SAID FLOCCULATING AGENT, AND PURIFICATION METHOD USING SAID FLOCCULATING AGENT 2012/10/11 2012/10/11 東京海洋大学
1538 2010JP007060 WO 2011/067939 世界知的所有権機関(WIPO) INCLINATION COMPUTATION DEVICE 2012/10/11 2012/10/11 東京海洋大学
1539 2011JP001762 WO 2011/118225 世界知的所有権機関(WIPO) METHOD FOR ENGRAFTING GERM CELLS 2012/10/11 2012/10/11 東京海洋大学
1540 2011JP002734 WO 2011/145332 世界知的所有権機関(WIPO) CENTROID DETECTION DEVICE 2012/10/11 2013/09/17 東京海洋大学
1541 2012JP051895 WO 2012102400 世界知的所有権機関(WIPO) STATOR TEETH, STATOR, ROTATING ARMATURE, AND METHOD FOR CONTROLLING ROTATING ARMATURE 2012/10/11 2019/04/19 芝浦工業大学
1542 2012JP057667 WO 2012128377 世界知的所有権機関(WIPO) COMPOSITION FOR TREATMENT AND DIAGNOSIS OF PANCREATIC CANCER 2012/10/11 2019/04/24 鹿児島大学
1543 2012JP057455 WO 2012/128343 世界知的所有権機関(WIPO) AGENT FOR IMPROVING EFFICIENCY OF GENERATING INDUCED PLURIPOTENT STEM CELLS AND EFFICIENT METHOD FOR GENERATING INDUCED PLURIPOTENT STEM CELLS BY USING SAME 2012/10/11 2012/10/11 名古屋市立大学
1544 2008JP052232 WO 2008/105229 世界知的所有権機関(WIPO) FINGER ARTERY ELASTICITY MEASURING PROGRAM, FINGER ARTERY ELASTICITY MEASURING DEVICE, AND FINGER ARTERY ELASTICITY MEASURING METHOD 2012/10/12 2013/09/17 札幌医科大学
1545 2011JP071900 WO 2012/043481 世界知的所有権機関(WIPO) COMPOSITION CONTAINING 2-ACYL-LYSOPHOSPHATIDYLSERINE AND METHOD FOR PRODUCING SAME 2012/10/12 2012/10/12 東京海洋大学
1546 2012JP002031 WO 2012/132369 世界知的所有権機関(WIPO) VIRAL VECTOR TARGETING CANCER STEM CELLS 2012/10/17 2012/10/17 鹿児島大学
1547 2012JP058414 WO 2012/133674 世界知的所有権機関(WIPO) METHOD FOR REMOVING TUMORIGENESIS-CAUSING CELLS AMONG STEM CELLS 2012/10/17 2012/10/17 鹿児島大学
1548 2012JP058123 WO 2012/133527 世界知的所有権機関(WIPO) SODIUM ION SECONDARY BATTERY 2012/10/17 2012/10/17 九州大学
1549 2012JP059278 WO 2012/133920 世界知的所有権機関(WIPO) SOLID-STATE DYE LASER MEDIUM AND PROCESS FOR PRODUCTION THEREOF 2012/10/17 2012/10/17 九州大学
1550 2012JP058189 WO 2012/133556 世界知的所有権機関(WIPO) ELECTROLYTE SOLUTION FOR LITHIUM SECONDARY BATTERIES, AND LITHIUM SECONDARY BATTERY 2012/10/17 2012/10/17 静岡大学
1551 2012JP057939 WO 2012/133411 世界知的所有権機関(WIPO) FRICTION STIR PROCESSING DEVICE AND FRICTION STIR PROCESSING METHOD 2012/10/17 2012/10/17 大阪府立大学
1552 2012JP057940 WO 2012/133412 世界知的所有権機関(WIPO) TOOL FOR FRICTION STIR PROCESSING AND METHOD FOR FRICTION STIR PROCESSING USING SAME 2012/10/17 2012/10/17 大阪府立大学
1553 2012JP055330 WO 2012/132757 世界知的所有権機関(WIPO) SKELETON NANOPARTICLES AND METHOD FOR PRODUCING SAME 2012/10/17 2012/10/17 名古屋工業大学
1554 2012JP058685 WO 2012/133823 世界知的所有権機関(WIPO) NOVEL USEFUL DEEP-SEA BACTERIA 2012/10/17 2012/10/17 東京海洋大学
1555 2012JP056995 WO 2012/132989 世界知的所有権機関(WIPO) MANGANESE-CONTAINING LITHIUM TRIBORATE THERMOLUMINESCENT PHOSPHOR, AND METHOD FOR PRODUCING SAME 実績あり 2012/10/17 2012/10/17 立教大学
1556 2012JP058358 WO 2012/133651 世界知的所有権機関(WIPO) COPPER ALLOY AND METHOD FOR PRODUCING COPPER ALLOY 2012/10/17 2012/10/17 東北大学
1557 2012JP058621 WO 2012/133796 世界知的所有権機関(WIPO) SCINTILLATOR PLATE, RADIATION MEASURING APPARATUS, RADIATION IMAGING APPARATUS, AND SCINTILLATOR PLATE MANUFACTURING METHOD 2012/10/17 2012/10/17 北海道大学
1558 2012JP059411 WO 2012/137885 世界知的所有権機関(WIPO) AGENT FOR INHIBITING OR PREVENTING RENAL INTERSTITIAL FIBROSIS 2012/10/24 2012/10/24 慶應義塾大学
1559 2012JP059462 WO 2012/137899 世界知的所有権機関(WIPO) PARASITE SUPPRESSING ONSET OF TYPE 2 DIABETES 2012/10/25 2012/10/25 麻布大学
1560 2008JP072330 WO 2009/075264 世界知的所有権機関(WIPO) METAL ENCAPSULATED DENDRITIC CARBON NANOSTRUCTURE, CARBON NANOSTRUCTURE, PROCESS FOR PRODUCING METAL ENCAPSULATED DENDRITIC CARBON NANOSTRUCTURE, PROCESS FOR PRODUCING CARBON NANOSTRUCTURE, AND CAPACITOR 2012/10/26 2013/09/17 自然科学研究機構(NINS)
1561 2009JP007279 WO 2010/073712 世界知的所有権機関(WIPO) LIGHT-TRANSMISSIVE POLYCRYSTALLINE MATERIAL AND METHOD FOR PRODUCING THE SAME 2012/10/26 2013/09/17 自然科学研究機構(NINS)
1562 2011JP058684 WO 2011/126041 世界知的所有権機関(WIPO) COMPOUND MICROSCOPE DEVICE 2012/10/26 2013/09/17 自然科学研究機構(NINS)
1563 2011JP060855 WO 2011/158579 世界知的所有権機関(WIPO) OBJECTIVE LENS SYSTEM AND ELECTRON MICROSCOPE 2012/10/26 2012/10/26 自然科学研究機構(NINS)
1564 2011JP004485 WO 2012/020561 世界知的所有権機関(WIPO) CARBON NANOSTRUCTURE, METAL-SUPPORTED CARBON NANOSTRUCTURE, LITHIUM ION SECONDARY BATTERY, PROCESS FOR PRODUCTION OF CARBON NANOSTRUCTURE, AND PROCESS FOR PRODUCTION OF METAL-SUPPORTED CARBON NANOSTRUCTURE 2012/10/26 2012/10/26 自然科学研究機構(NINS)
1565 2012JP050023 WO 2012/111354 世界知的所有権機関(WIPO) LIGHT-TRANSMITTING POLYCRYSTALLINE MATERIAL AND PROCESS FOR PRODUCING SAME 2012/10/26 2012/10/26 自然科学研究機構(NINS)
1566 2011JP005179 WO 2012/035768 世界知的所有権機関(WIPO) INFORMATION DISPLAY DEVICE 新技術説明会 2012/10/29 2012/10/29 タマティーエルオー
1567 2011JP067469 WO 2012/017950 世界知的所有権機関(WIPO) ELECTROENCEPHALOGRAPHIC ELECTRODE DEVICE FOR SMALL LABORATORY ANIMAL AND ELECTROENCEPHALOGRAPHIC METHOD 2012/10/29 2012/10/29 久留米大学
1568 2011JP069244 WO 2012/029639 世界知的所有権機関(WIPO) ANTENNA 2012/10/29 2012/10/29 四国TLO
1569 2011JP070273 WO 2012/033096 世界知的所有権機関(WIPO) SPECTROMETER AND SPECTROMETRIC METHOD 新技術説明会 2012/10/29 2012/10/29 香川大学
1570 2011JP074539 WO 2012/057129 世界知的所有権機関(WIPO) CEREAL POWDER AND APPLICATION FOOD 2012/10/29 2012/10/29 埼玉大学
1571 2011JP070533 WO 2012033181 世界知的所有権機関(WIPO) CULTURE METHOD AND CULTURE DEVICE 2012/10/29 2019/04/24 筑波大学
1572 2011JP004578 WO 2012/026089 世界知的所有権機関(WIPO) SiC SEMICONDUCTOR ELEMENT 2012/10/29 2012/10/29 奈良先端科学技術大学院大学
1573 2011JP065531 WO 2012/005315 世界知的所有権機関(WIPO) HOLOGRAPHIC MICROSCOPE, MICROSCOPIC SUBJECT HOLOGRAM IMAGE RECORDING METHOD, METHOD OF CREATION OF HOLOGRAM FOR REPRODUCTION OF HIGH-RESOLUTION IMAGE, AND METHOD FOR REPRODUCTION OF IMAGE 新技術説明会 2012/10/29 2013/09/17 兵庫県立大学
1574 2011JP068360 WO 2012/023487 世界知的所有権機関(WIPO) METAL COMPLEX, FLUORESCENT PROBE 2012/10/29 2012/10/29 同志社大学
1575 2011JP067637 WO 2012/039197 世界知的所有権機関(WIPO) AGENT FOR ENHANCING TRAIL SENSITIVITY 2012/10/29 2012/10/29 日大NUBIC
1576 2011JP069503 WO 2012/029728 世界知的所有権機関(WIPO) HYPOGLYCEMIC AGENT AND HEALTH FOOD THAT CONTAIN RICE ALBUMIN 2012/10/29 2012/10/29 日大NUBIC
1577 2011JP066466 WO 2012/039189 世界知的所有権機関(WIPO) Re-ADDED Ni-BASED DUAL-PHASE INTERMETALLIC COMPOUND ALLOY AND PROCESS FOR PRODUCTION THEREOF 新技術説明会 2012/10/29 2012/10/29 大阪府立大学
1578 2012JP051961 WO 2012/105483 世界知的所有権機関(WIPO) METHOD FOR PRODUCING METAL COMPLEX OF COMPOUND THAT HAS PORPHYRIN SKELETON 新技術説明会 2012/10/29 2012/10/29 宇都宮大学
1579 2011JP067531 WO 2012/017966 世界知的所有権機関(WIPO) METAL COMPLEX COMPOUND AND AMIDE PRODUCTION METHOD THAT UTILIZES SAID METAL COMPLEX COMPOUND 新技術説明会 2012/10/29 2012/10/29 岡山大学
1580 2011JP069439 WO 2012/029710 世界知的所有権機関(WIPO) NANOFIBER EXERTING EXCELLENT BIODEGRADABILITY AND BIOCOMPATIBILITY, AND METHOD FOR PRODUCING SAID NANOFIBER 2012/10/29 2012/10/29 岡山大学
1581 2011JP071669 WO 2012039469 世界知的所有権機関(WIPO) METHOD FOR SCREENING BINDING INHIBITOR OF RAGE AND AGE 2012/10/29 2019/04/24 岡山大学
1582 2011JP069178 WO 2012026526 世界知的所有権機関(WIPO) HEMOKININ-1 RECEPTOR AND HEMOKININ-1-DERIVED PEPTIDE 2012/10/29 2019/04/22 宮崎大学
1583 2011JP070366 WO 2012/033124 世界知的所有権機関(WIPO) PACKET COMMUNICATION SYSTEM, IRRADIATION CONTROL APPARATUS, ANTENNA CONTROL METHOD AND PROGRAM 2012/10/29 2012/10/29 九州大学
1584 2011JP072490 WO 2012/039513 世界知的所有権機関(WIPO) PROLIFERATION, SEPARATION AND TRANSPLANTATION OF SUPPRESSIVE NEURAL PROGENITOR CELLS, AND SUBSTANCE CAPABLE OF ENHANCING PROLIFERATION OF THE CELLS 2012/10/29 2012/10/29 熊本大学
1585 2011JP069851 WO 2012/029888 世界知的所有権機関(WIPO) TEXTURE INDICATION MEASURING METHOD AND MEASURING DEVICE 2012/10/29 2012/10/29 広島大学
1586 2011JP061910 WO 2012/042970 世界知的所有権機関(WIPO) PROPHYLACTIC OR THERAPEUTIC AGENT FOR ATOPIC DERMATITIS, AND PREPARATION FOR EXTERNAL APPLICATION 新技術説明会 2012/10/29 2012/10/29 高知大学
1587 2011JP071680 WO 2012/043399 世界知的所有権機関(WIPO) FINE COATED COPPER PARTICLES AND METHOD FOR PRODUCING SAME 新技術説明会 2012/10/29 2012/10/29 山形大学
1588 2011JP072357 WO 2012/043710 世界知的所有権機関(WIPO) GROWTH-REGULATED VIRAL VECTOR CONTAINING THE Aurora KINASE PROMOTER 2012/10/29 2012/10/29 鹿児島大学
1589 2011JP070146 WO 2012/029973 世界知的所有権機関(WIPO) MAGNETIC FIELD OBSERVATION DEVICE AND MAGNETIC FIELD OBSERVATION METHOD 新技術説明会 2012/10/29 2012/10/29 秋田大学
1590 2011JP004335 WO 2012/017637 世界知的所有権機関(WIPO) OPTICAL REACTOR AND METHOD FOR MANUFACTURING SAME 新技術説明会 2012/10/29 2012/10/29 信州大学
1591 2011JP074927 WO 2012/081314 世界知的所有権機関(WIPO) CONTROL METHOD FOR CONTRACT-TYPE GEL ACTUATOR 2012/10/29 2012/10/29 信州大学
1592 2011JP004642 WO 2012/023291 世界知的所有権機関(WIPO) PHARMACEUTICAL COMPOSITION FOR TRANSCOLONIC ABSORPTION 2012/10/29 2012/10/29 東京医科歯科大学
1593 2011JP004840 WO 2012/035707 世界知的所有権機関(WIPO) MAP GENERATION DEVICE, MAP GENERATION METHOD, METHOD FOR MOVING MOBILE BODY, AND ROBOT DEVICE 2012/10/29 2012/10/29 東京工業大学
1594 2011JP004762 WO 2012/029269 世界知的所有権機関(WIPO) METHOD FOR DETERMINING CANCER ONSET OR CANCER ONSET RISK 2012/10/29 2012/10/29 東北大学
1595 2011JP004763 WO 2012/035705 世界知的所有権機関(WIPO) METHOD FOR DETERMINING EFFECTIVENESS OF MEDICINE CONTAINING ANTIBODY AS COMPONENT 2012/10/29 2012/10/29 東北大学
1596 2011JP067140 WO 2012/053267 世界知的所有権機関(WIPO) OPTICAL FIBER AND UNDERWATER SHOCKWAVE GENERATING DEVICE EMPLOYING SAME 新技術説明会 2012/10/29 2012/10/29 東北大学
1597 2011JP071099 WO 2012/036234 世界知的所有権機関(WIPO) ENVIRONMENTAL INFORMATION MEASUREMENT DEVICE, ENVIRONMENTAL INFORMATION MEASUREMENT SYSTEM, AND ENVIRONMENTAL INFORMATION MEASUREMENT METHOD 2012/10/29 2012/10/29 北海道大学
1598 2012JP002579 WO 2012/144177 世界知的所有権機関(WIPO) NEGATIVE ELECTRODE FOR LITHIUM ION SECONDARY BATTERIES AND LITHIUM ION SECONDARY BATTERY USING NEGATIVE ELECTRODE 2012/11/07 2012/11/07 群馬大学
1599 2012JP059918 WO 2012/141221 世界知的所有権機関(WIPO) VIDEO CODING DEVICE, VIDEO CODING METHOD, VIDEO CODING PROGRAM, AND COMPUTER-READABLE RECORDING MEDIUM 2012/11/08 2012/11/08 徳島大学
1600 2012JP057254 WO 2012/133070 世界知的所有権機関(WIPO) SILVER-CONTAINING LITHIUM HEPTABORATE PHOTOSTIMULABLE PHOSPHOR, METHOD FOR PRODUCING SAME, AND LAMINATE USING SAID PHOTOSTIMULABLE PHOSPHOR 実績あり 2012/11/09 2012/11/09 立教大学

PAGE TOP